sensor_id;sensor_type;location;lat;lon;timestamp;P1;durP1;ratioP1;P2;durP2;ratioP2
63012;SDS011;62113;45.624;11.700;2024-02-23T00:01:43;36.42;;;23.40;;
63012;SDS011;62113;45.624;11.700;2024-02-23T00:04:14;39.88;;;24.50;;
63012;SDS011;62113;45.624;11.700;2024-02-23T00:06:41;35.33;;;22.95;;
63012;SDS011;62113;45.624;11.700;2024-02-23T00:09:06;38.10;;;24.13;;
63012;SDS011;62113;45.624;11.700;2024-02-23T00:11:32;40.67;;;24.05;;
63012;SDS011;62113;45.624;11.700;2024-02-23T00:13:58;34.38;;;22.08;;
63012;SDS011;62113;45.624;11.700;2024-02-23T00:16:24;33.97;;;20.67;;
63012;SDS011;62113;45.624;11.700;2024-02-23T00:21:16;30.63;;;20.23;;
63012;SDS011;62113;45.624;11.700;2024-02-23T00:23:42;36.35;;;21.98;;
63012;SDS011;62113;45.624;11.700;2024-02-23T00:26:08;33.83;;;22.15;;
63012;SDS011;62113;45.624;11.700;2024-02-23T00:28:33;31.40;;;20.98;;
63012;SDS011;62113;45.624;11.700;2024-02-23T00:30:59;33.15;;;19.60;;
63012;SDS011;62113;45.624;11.700;2024-02-23T00:33:25;30.70;;;20.52;;
63012;SDS011;62113;45.624;11.700;2024-02-23T00:35:50;31.52;;;19.85;;
63012;SDS011;62113;45.624;11.700;2024-02-23T00:38:16;31.23;;;20.40;;
63012;SDS011;62113;45.624;11.700;2024-02-23T00:40:41;26.38;;;17.58;;
63012;SDS011;62113;45.624;11.700;2024-02-23T00:43:07;32.65;;;20.02;;
63012;SDS011;62113;45.624;11.700;2024-02-23T00:45:33;29.75;;;19.13;;
63012;SDS011;62113;45.624;11.700;2024-02-23T00:47:58;27.17;;;18.25;;
63012;SDS011;62113;45.624;11.700;2024-02-23T00:50:24;25.80;;;15.77;;
63012;SDS011;62113;45.624;11.700;2024-02-23T00:55:17;22.52;;;15.45;;
63012;SDS011;62113;45.624;11.700;2024-02-23T00:57:43;25.17;;;15.88;;
63012;SDS011;62113;45.624;11.700;2024-02-23T01:00:08;26.80;;;16.97;;
63012;SDS011;62113;45.624;11.700;2024-02-23T01:02:34;27.15;;;16.90;;
63012;SDS011;62113;45.624;11.700;2024-02-23T01:05:00;22.92;;;16.08;;
63012;SDS011;62113;45.624;11.700;2024-02-23T01:07:27;27.08;;;16.70;;
63012;SDS011;62113;45.624;11.700;2024-02-23T01:09:53;22.48;;;15.65;;
63012;SDS011;62113;45.624;11.700;2024-02-23T01:12:18;22.15;;;15.00;;
63012;SDS011;62113;45.624;11.700;2024-02-23T01:14:44;25.27;;;15.65;;
63012;SDS011;62113;45.624;11.700;2024-02-23T01:17:09;20.10;;;14.07;;
63012;SDS011;62113;45.624;11.700;2024-02-23T01:19:35;22.27;;;14.35;;
63012;SDS011;62113;45.624;11.700;2024-02-23T01:22:01;22.00;;;14.88;;
63012;SDS011;62113;45.624;11.700;2024-02-23T01:24:26;21.95;;;14.55;;
63012;SDS011;62113;45.624;11.700;2024-02-23T01:26:54;21.05;;;14.50;;
63012;SDS011;62113;45.624;11.700;2024-02-23T01:29:24;21.60;;;13.52;;
63012;SDS011;62113;45.624;11.700;2024-02-23T01:31:51;19.77;;;14.20;;
63012;SDS011;62113;45.624;11.700;2024-02-23T01:34:16;23.70;;;15.35;;
63012;SDS011;62113;45.624;11.700;2024-02-23T01:36:42;24.70;;;14.53;;
63012;SDS011;62113;45.624;11.700;2024-02-23T01:39:08;18.60;;;13.73;;
63012;SDS011;62113;45.624;11.700;2024-02-23T01:41:34;21.90;;;14.32;;
63012;SDS011;62113;45.624;11.700;2024-02-23T01:44:00;18.70;;;13.80;;
63012;SDS011;62113;45.624;11.700;2024-02-23T01:46:26;19.33;;;14.73;;
63012;SDS011;62113;45.624;11.700;2024-02-23T01:48:51;22.48;;;15.07;;
63012;SDS011;62113;45.624;11.700;2024-02-23T01:51:17;17.88;;;14.15;;
63012;SDS011;62113;45.624;11.700;2024-02-23T01:53:43;20.77;;;14.53;;
63012;SDS011;62113;45.624;11.700;2024-02-23T01:56:09;19.30;;;13.98;;
63012;SDS011;62113;45.624;11.700;2024-02-23T01:58:36;18.58;;;13.25;;
63012;SDS011;62113;45.624;11.700;2024-02-23T02:01:02;18.88;;;12.45;;
63012;SDS011;62113;45.624;11.700;2024-02-23T02:03:28;20.17;;;13.02;;
63012;SDS011;62113;45.624;11.700;2024-02-23T02:05:54;16.08;;;12.35;;
63012;SDS011;62113;45.624;11.700;2024-02-23T02:08:23;15.45;;;11.88;;
63012;SDS011;62113;45.624;11.700;2024-02-23T02:10:50;18.25;;;11.68;;
63012;SDS011;62113;45.624;11.700;2024-02-23T02:13:15;16.27;;;10.68;;
63012;SDS011;62113;45.624;11.700;2024-02-23T02:15:41;12.43;;;9.80;;
63012;SDS011;62113;45.624;11.700;2024-02-23T02:18:08;11.90;;;8.48;;
63012;SDS011;62113;45.624;11.700;2024-02-23T02:20:34;11.50;;;9.00;;
63012;SDS011;62113;45.624;11.700;2024-02-23T02:23:02;10.20;;;7.70;;
63012;SDS011;62113;45.624;11.700;2024-02-23T02:25:28;11.05;;;7.80;;
63012;SDS011;62113;45.624;11.700;2024-02-23T02:27:54;10.63;;;7.13;;
63012;SDS011;62113;45.624;11.700;2024-02-23T02:30:19;7.72;;;6.93;;
63012;SDS011;62113;45.624;11.700;2024-02-23T02:32:45;10.33;;;7.23;;
63012;SDS011;62113;45.624;11.700;2024-02-23T02:35:11;8.02;;;7.15;;
63012;SDS011;62113;45.624;11.700;2024-02-23T02:37:40;9.45;;;7.43;;
63012;SDS011;62113;45.624;11.700;2024-02-23T02:40:06;10.38;;;6.97;;
63012;SDS011;62113;45.624;11.700;2024-02-23T02:42:32;7.28;;;6.57;;
63012;SDS011;62113;45.624;11.700;2024-02-23T02:44:58;10.30;;;7.28;;
63012;SDS011;62113;45.624;11.700;2024-02-23T02:47:24;8.23;;;6.60;;
63012;SDS011;62113;45.624;11.700;2024-02-23T02:49:49;9.37;;;6.60;;
63012;SDS011;62113;45.624;11.700;2024-02-23T02:52:16;9.02;;;6.90;;
63012;SDS011;62113;45.624;11.700;2024-02-23T02:54:41;8.45;;;6.22;;
63012;SDS011;62113;45.624;11.700;2024-02-23T02:57:07;9.30;;;7.05;;
63012;SDS011;62113;45.624;11.700;2024-02-23T02:59:36;7.93;;;6.55;;
63012;SDS011;62113;45.624;11.700;2024-02-23T03:02:01;8.63;;;7.32;;
63012;SDS011;62113;45.624;11.700;2024-02-23T03:04:27;7.85;;;6.78;;
63012;SDS011;62113;45.624;11.700;2024-02-23T03:06:52;9.47;;;7.07;;
63012;SDS011;62113;45.624;11.700;2024-02-23T03:09:18;8.82;;;7.18;;
63012;SDS011;62113;45.624;11.700;2024-02-23T03:11:44;9.57;;;7.20;;
63012;SDS011;62113;45.624;11.700;2024-02-23T03:14:09;11.00;;;6.68;;
63012;SDS011;62113;45.624;11.700;2024-02-23T03:16:35;7.00;;;6.25;;
63012;SDS011;62113;45.624;11.700;2024-02-23T03:19:02;10.65;;;6.45;;
63012;SDS011;62113;45.624;11.700;2024-02-23T03:21:28;9.52;;;5.85;;
63012;SDS011;62113;45.624;11.700;2024-02-23T03:23:54;6.50;;;5.50;;
63012;SDS011;62113;45.624;11.700;2024-02-23T03:26:19;6.72;;;5.55;;
63012;SDS011;62113;45.624;11.700;2024-02-23T03:28:45;7.07;;;5.32;;
63012;SDS011;62113;45.624;11.700;2024-02-23T03:31:11;7.88;;;5.53;;
63012;SDS011;62113;45.624;11.700;2024-02-23T03:33:36;7.97;;;5.30;;
63012;SDS011;62113;45.624;11.700;2024-02-23T03:36:02;9.23;;;5.30;;
63012;SDS011;62113;45.624;11.700;2024-02-23T03:38:28;5.97;;;4.90;;
63012;SDS011;62113;45.624;11.700;2024-02-23T03:40:55;13.88;;;7.32;;
63012;SDS011;62113;45.624;11.700;2024-02-23T03:43:21;7.50;;;5.17;;
63012;SDS011;62113;45.624;11.700;2024-02-23T03:45:47;6.43;;;4.50;;
63012;SDS011;62113;45.624;11.700;2024-02-23T03:48:12;5.00;;;4.33;;
63012;SDS011;62113;45.624;11.700;2024-02-23T03:50:38;5.88;;;4.95;;
63012;SDS011;62113;45.624;11.700;2024-02-23T03:53:04;11.07;;;4.70;;
63012;SDS011;62113;45.624;11.700;2024-02-23T03:55:29;5.50;;;4.90;;
63012;SDS011;62113;45.624;11.700;2024-02-23T03:57:55;5.35;;;4.65;;
63012;SDS011;62113;45.624;11.700;2024-02-23T04:00:20;5.88;;;4.40;;
63012;SDS011;62113;45.624;11.700;2024-02-23T04:02:48;7.45;;;3.85;;
63012;SDS011;62113;45.624;11.700;2024-02-23T04:05:14;4.55;;;3.38;;
63012;SDS011;62113;45.624;11.700;2024-02-23T04:07:39;4.83;;;3.50;;
63012;SDS011;62113;45.624;11.700;2024-02-23T04:10:05;5.30;;;3.30;;
63012;SDS011;62113;45.624;11.700;2024-02-23T04:12:31;5.63;;;3.63;;
63012;SDS011;62113;45.624;11.700;2024-02-23T04:14:57;4.85;;;2.97;;
63012;SDS011;62113;45.624;11.700;2024-02-23T04:17:23;3.25;;;2.67;;
63012;SDS011;62113;45.624;11.700;2024-02-23T04:19:48;4.00;;;2.95;;
63012;SDS011;62113;45.624;11.700;2024-02-23T04:22:14;4.25;;;2.78;;
63012;SDS011;62113;45.624;11.700;2024-02-23T04:24:40;3.45;;;3.13;;
63012;SDS011;62113;45.624;11.700;2024-02-23T04:27:06;3.60;;;3.22;;
63012;SDS011;62113;45.624;11.700;2024-02-23T04:29:33;4.22;;;3.30;;
63012;SDS011;62113;45.624;11.700;2024-02-23T04:32:02;4.68;;;3.28;;
63012;SDS011;62113;45.624;11.700;2024-02-23T04:34:28;5.93;;;2.88;;
63012;SDS011;62113;45.624;11.700;2024-02-23T04:36:54;2.72;;;2.53;;
63012;SDS011;62113;45.624;11.700;2024-02-23T04:39:20;2.87;;;2.50;;
63012;SDS011;62113;45.624;11.700;2024-02-23T04:41:47;2.45;;;2.25;;
63012;SDS011;62113;45.624;11.700;2024-02-23T04:44:13;4.00;;;3.00;;
63012;SDS011;62113;45.624;11.700;2024-02-23T04:46:38;2.60;;;2.40;;
63012;SDS011;62113;45.624;11.700;2024-02-23T04:49:04;4.45;;;2.92;;
63012;SDS011;62113;45.624;11.700;2024-02-23T04:51:29;4.38;;;3.00;;
63012;SDS011;62113;45.624;11.700;2024-02-23T04:53:55;3.22;;;2.85;;
63012;SDS011;62113;45.624;11.700;2024-02-23T04:56:21;2.97;;;2.75;;
63012;SDS011;62113;45.624;11.700;2024-02-23T04:58:46;7.03;;;2.53;;
63012;SDS011;62113;45.624;11.700;2024-02-23T05:01:12;3.28;;;2.20;;
63012;SDS011;62113;45.624;11.700;2024-02-23T05:03:38;2.60;;;2.40;;
63012;SDS011;62113;45.624;11.700;2024-02-23T05:06:04;4.00;;;2.50;;
63012;SDS011;62113;45.624;11.700;2024-02-23T05:08:30;4.50;;;2.37;;
63012;SDS011;62113;45.624;11.700;2024-02-23T05:10:56;4.90;;;2.55;;
63012;SDS011;62113;45.624;11.700;2024-02-23T05:13:22;5.80;;;2.90;;
63012;SDS011;62113;45.624;11.700;2024-02-23T05:15:48;2.70;;;2.22;;
63012;SDS011;62113;45.624;11.700;2024-02-23T05:18:14;2.75;;;2.35;;
63012;SDS011;62113;45.624;11.700;2024-02-23T05:20:40;2.97;;;1.97;;
63012;SDS011;62113;45.624;11.700;2024-02-23T05:23:06;3.08;;;2.67;;
63012;SDS011;62113;45.624;11.700;2024-02-23T05:25:31;3.13;;;2.17;;
63012;SDS011;62113;45.624;11.700;2024-02-23T05:27:57;3.47;;;2.40;;
63012;SDS011;62113;45.624;11.700;2024-02-23T05:30:23;2.28;;;2.17;;
63012;SDS011;62113;45.624;11.700;2024-02-23T05:32:48;3.20;;;2.60;;
63012;SDS011;62113;45.624;11.700;2024-02-23T05:35:14;2.55;;;2.35;;
63012;SDS011;62113;45.624;11.700;2024-02-23T05:37:41;6.40;;;3.83;;
63012;SDS011;62113;45.624;11.700;2024-02-23T05:40:06;3.33;;;2.78;;
63012;SDS011;62113;45.624;11.700;2024-02-23T05:42:38;5.57;;;2.70;;
63012;SDS011;62113;45.624;11.700;2024-02-23T05:45:04;13.38;;;3.65;;
63012;SDS011;62113;45.624;11.700;2024-02-23T05:47:34;4.63;;;2.90;;
63012;SDS011;62113;45.624;11.700;2024-02-23T05:50:03;5.45;;;3.08;;
63012;SDS011;62113;45.624;11.700;2024-02-23T05:52:33;6.45;;;3.55;;
63012;SDS011;62113;45.624;11.700;2024-02-23T05:54:58;4.68;;;3.10;;
63012;SDS011;62113;45.624;11.700;2024-02-23T05:57:30;6.85;;;3.60;;
63012;SDS011;62113;45.624;11.700;2024-02-23T05:59:56;8.60;;;3.58;;
63012;SDS011;62113;45.624;11.700;2024-02-23T06:02:22;6.63;;;3.80;;
63012;SDS011;62113;45.624;11.700;2024-02-23T06:04:48;6.25;;;3.28;;
63012;SDS011;62113;45.624;11.700;2024-02-23T06:07:13;6.65;;;3.28;;
63012;SDS011;62113;45.624;11.700;2024-02-23T06:09:42;11.18;;;4.15;;
63012;SDS011;62113;45.624;11.700;2024-02-23T06:12:08;7.40;;;3.50;;
63012;SDS011;62113;45.624;11.700;2024-02-23T06:14:34;10.50;;;3.53;;
63012;SDS011;62113;45.624;11.700;2024-02-23T06:17:00;6.90;;;3.53;;
63012;SDS011;62113;45.624;11.700;2024-02-23T06:19:26;7.03;;;4.00;;
63012;SDS011;62113;45.624;11.700;2024-02-23T06:21:52;6.85;;;3.58;;
63012;SDS011;62113;45.624;11.700;2024-02-23T06:24:17;7.57;;;3.15;;
63012;SDS011;62113;45.624;11.700;2024-02-23T06:26:44;7.25;;;3.60;;
63012;SDS011;62113;45.624;11.700;2024-02-23T06:29:11;7.20;;;3.00;;
63012;SDS011;62113;45.624;11.700;2024-02-23T06:31:38;5.22;;;3.60;;
63012;SDS011;62113;45.624;11.700;2024-02-23T06:34:04;7.22;;;3.70;;
63012;SDS011;62113;45.624;11.700;2024-02-23T06:36:30;7.50;;;3.28;;
63012;SDS011;62113;45.624;11.700;2024-02-23T06:38:56;4.63;;;3.60;;
63012;SDS011;62113;45.624;11.700;2024-02-23T06:41:21;6.93;;;3.58;;
63012;SDS011;62113;45.624;11.700;2024-02-23T06:43:47;8.53;;;3.57;;
63012;SDS011;62113;45.624;11.700;2024-02-23T06:46:13;7.90;;;3.50;;
63012;SDS011;62113;45.624;11.700;2024-02-23T06:48:38;5.47;;;3.33;;
63012;SDS011;62113;45.624;11.700;2024-02-23T06:51:04;6.28;;;3.92;;
63012;SDS011;62113;45.624;11.700;2024-02-23T06:53:34;6.93;;;3.33;;
63012;SDS011;62113;45.624;11.700;2024-02-23T06:55:59;9.20;;;3.83;;
63012;SDS011;62113;45.624;11.700;2024-02-23T06:58:26;6.40;;;3.57;;
63012;SDS011;62113;45.624;11.700;2024-02-23T07:00:51;7.97;;;3.83;;
63012;SDS011;62113;45.624;11.700;2024-02-23T07:03:17;7.72;;;3.83;;
63012;SDS011;62113;45.624;11.700;2024-02-23T07:05:43;8.70;;;4.22;;
63012;SDS011;62113;45.624;11.700;2024-02-23T07:10:35;5.57;;;3.50;;
63012;SDS011;62113;45.624;11.700;2024-02-23T07:13:01;5.23;;;3.37;;
63012;SDS011;62113;45.624;11.700;2024-02-23T07:15:27;11.07;;;4.20;;
63012;SDS011;62113;45.624;11.700;2024-02-23T07:17:52;11.93;;;3.87;;
63012;SDS011;62113;45.624;11.700;2024-02-23T07:20:18;4.50;;;3.00;;
63012;SDS011;62113;45.624;11.700;2024-02-23T07:22:44;7.37;;;3.47;;
63012;SDS011;62113;45.624;11.700;2024-02-23T07:25:11;7.90;;;3.72;;
63012;SDS011;62113;45.624;11.700;2024-02-23T07:27:36;5.40;;;3.13;;
63012;SDS011;62113;45.624;11.700;2024-02-23T07:30:02;9.07;;;3.77;;
63012;SDS011;62113;45.624;11.700;2024-02-23T07:32:29;6.25;;;3.65;;
63012;SDS011;62113;45.624;11.700;2024-02-23T07:34:55;6.20;;;3.42;;
63012;SDS011;62113;45.624;11.700;2024-02-23T07:37:21;8.80;;;4.20;;
63012;SDS011;62113;45.624;11.700;2024-02-23T07:39:46;7.67;;;3.57;;
63012;SDS011;62113;45.624;11.700;2024-02-23T07:42:12;5.72;;;3.40;;
63012;SDS011;62113;45.624;11.700;2024-02-23T07:44:39;5.60;;;3.33;;
63012;SDS011;62113;45.624;11.700;2024-02-23T07:47:05;4.43;;;3.43;;
63012;SDS011;62113;45.624;11.700;2024-02-23T07:49:31;8.88;;;3.75;;
63012;SDS011;62113;45.624;11.700;2024-02-23T07:51:56;6.67;;;3.77;;
63012;SDS011;62113;45.624;11.700;2024-02-23T07:54:22;6.78;;;3.88;;
63012;SDS011;62113;45.624;11.700;2024-02-23T07:56:48;7.38;;;3.97;;
63012;SDS011;62113;45.624;11.700;2024-02-23T07:59:13;11.25;;;4.15;;
63012;SDS011;62113;45.624;11.700;2024-02-23T08:01:39;7.57;;;4.10;;
63012;SDS011;62113;45.624;11.700;2024-02-23T08:04:05;6.95;;;3.90;;
63012;SDS011;62113;45.624;11.700;2024-02-23T08:06:31;5.90;;;3.40;;
63012;SDS011;62113;45.624;11.700;2024-02-23T08:08:56;9.27;;;4.10;;
63012;SDS011;62113;45.624;11.700;2024-02-23T08:11:22;7.68;;;3.85;;
63012;SDS011;62113;45.624;11.700;2024-02-23T08:13:48;7.57;;;3.50;;
63012;SDS011;62113;45.624;11.700;2024-02-23T08:16:15;5.77;;;3.27;;
63012;SDS011;62113;45.624;11.700;2024-02-23T08:18:41;11.23;;;3.80;;
63012;SDS011;62113;45.624;11.700;2024-02-23T08:21:06;9.20;;;3.72;;
63012;SDS011;62113;45.624;11.700;2024-02-23T08:23:32;10.07;;;3.83;;
63012;SDS011;62113;45.624;11.700;2024-02-23T08:25:58;9.00;;;4.13;;
63012;SDS011;62113;45.624;11.700;2024-02-23T08:28:25;6.57;;;3.28;;
63012;SDS011;62113;45.624;11.700;2024-02-23T08:30:51;8.35;;;4.05;;
63012;SDS011;62113;45.624;11.700;2024-02-23T08:35:43;9.53;;;4.00;;
63012;SDS011;62113;45.624;11.700;2024-02-23T08:38:09;5.57;;;3.50;;
63012;SDS011;62113;45.624;11.700;2024-02-23T08:40:35;6.85;;;3.38;;
63012;SDS011;62113;45.624;11.700;2024-02-23T08:43:01;4.57;;;3.07;;
63012;SDS011;62113;45.624;11.700;2024-02-23T08:45:26;6.80;;;3.40;;
63012;SDS011;62113;45.624;11.700;2024-02-23T08:47:52;7.53;;;3.33;;
63012;SDS011;62113;45.624;11.700;2024-02-23T08:50:18;5.87;;;3.20;;
63012;SDS011;62113;45.624;11.700;2024-02-23T08:52:43;6.00;;;3.97;;
63012;SDS011;62113;45.624;11.700;2024-02-23T08:55:09;6.57;;;3.23;;
63012;SDS011;62113;45.624;11.700;2024-02-23T08:57:36;7.53;;;3.50;;
63012;SDS011;62113;45.624;11.700;2024-02-23T09:00:02;7.47;;;3.85;;
63012;SDS011;62113;45.624;11.700;2024-02-23T09:02:29;7.18;;;3.65;;
63012;SDS011;62113;45.624;11.700;2024-02-23T09:04:56;8.52;;;3.38;;
63012;SDS011;62113;45.624;11.700;2024-02-23T09:07:21;6.60;;;3.47;;
63012;SDS011;62113;45.624;11.700;2024-02-23T09:09:47;7.30;;;3.50;;
63012;SDS011;62113;45.624;11.700;2024-02-23T09:12:15;7.22;;;3.42;;
63012;SDS011;62113;45.624;11.700;2024-02-23T09:14:41;13.07;;;4.38;;
63012;SDS011;62113;45.624;11.700;2024-02-23T09:22:01;8.45;;;3.40;;
63012;SDS011;62113;45.624;11.700;2024-02-23T09:24:27;6.20;;;3.50;;
63012;SDS011;62113;45.624;11.700;2024-02-23T09:26:53;6.10;;;3.10;;
63012;SDS011;62113;45.624;11.700;2024-02-23T09:29:18;3.77;;;3.20;;
63012;SDS011;62113;45.624;11.700;2024-02-23T09:31:44;6.70;;;3.47;;
63012;SDS011;62113;45.624;11.700;2024-02-23T09:34:10;7.10;;;3.47;;
63012;SDS011;62113;45.624;11.700;2024-02-23T09:36:35;7.70;;;3.63;;
63012;SDS011;62113;45.624;11.700;2024-02-23T09:39:01;7.72;;;3.63;;
63012;SDS011;62113;45.624;11.700;2024-02-23T09:41:29;4.72;;;3.42;;
63012;SDS011;62113;45.624;11.700;2024-02-23T09:43:57;5.53;;;3.55;;
63012;SDS011;62113;45.624;11.700;2024-02-23T09:46:24;5.07;;;3.80;;
63012;SDS011;62113;45.624;11.700;2024-02-23T09:48:51;4.18;;;3.35;;
63012;SDS011;62113;45.624;11.700;2024-02-23T09:51:18;6.60;;;3.78;;
63012;SDS011;62113;45.624;11.700;2024-02-23T09:53:45;7.55;;;3.80;;
63012;SDS011;62113;45.624;11.700;2024-02-23T09:56:14;7.35;;;3.58;;
63012;SDS011;62113;45.624;11.700;2024-02-23T09:58:42;6.18;;;3.38;;
63012;SDS011;62113;45.624;11.700;2024-02-23T10:01:09;7.38;;;3.55;;
63012;SDS011;62113;45.624;11.700;2024-02-23T10:06:03;6.35;;;3.28;;
63012;SDS011;62113;45.624;11.700;2024-02-23T10:10:55;7.15;;;3.83;;
63012;SDS011;62113;45.624;11.700;2024-02-23T10:13:22;14.50;;;5.32;;
63012;SDS011;62113;45.624;11.700;2024-02-23T10:15:56;9.45;;;4.47;;
63012;SDS011;62113;45.624;11.700;2024-02-23T10:18:21;9.25;;;4.00;;
63012;SDS011;62113;45.624;11.700;2024-02-23T10:20:48;10.05;;;3.88;;
63012;SDS011;62113;45.624;11.700;2024-02-23T10:25:40;9.17;;;4.10;;
63012;SDS011;62113;45.624;11.700;2024-02-23T10:28:06;5.28;;;3.63;;
63012;SDS011;62113;45.624;11.700;2024-02-23T10:30:32;4.50;;;3.40;;
63012;SDS011;62113;45.624;11.700;2024-02-23T10:32:58;5.63;;;3.58;;
63012;SDS011;62113;45.624;11.700;2024-02-23T10:35:25;5.47;;;3.60;;
63012;SDS011;62113;45.624;11.700;2024-02-23T10:37:55;8.65;;;4.50;;
63012;SDS011;62113;45.624;11.700;2024-02-23T10:40:21;5.07;;;3.55;;
63012;SDS011;62113;45.624;11.700;2024-02-23T10:42:51;8.52;;;4.28;;
63012;SDS011;62113;45.624;11.700;2024-02-23T10:45:21;5.22;;;4.10;;
63012;SDS011;62113;45.624;11.700;2024-02-23T10:47:47;5.45;;;4.22;;
63012;SDS011;62113;45.624;11.700;2024-02-23T10:50:13;5.22;;;3.70;;
63012;SDS011;62113;45.624;11.700;2024-02-23T10:52:42;12.97;;;4.50;;
63012;SDS011;62113;45.624;11.700;2024-02-23T10:55:09;5.75;;;3.83;;
63012;SDS011;62113;45.624;11.700;2024-02-23T10:57:35;5.75;;;3.70;;
63012;SDS011;62113;45.624;11.700;2024-02-23T11:00:02;7.07;;;4.10;;
63012;SDS011;62113;45.624;11.700;2024-02-23T11:02:35;6.10;;;4.03;;
63012;SDS011;62113;45.624;11.700;2024-02-23T11:05:14;7.50;;;4.18;;
63012;SDS011;62113;45.624;11.700;2024-02-23T11:07:41;9.88;;;3.80;;
63012;SDS011;62113;45.624;11.700;2024-02-23T11:10:07;9.17;;;3.93;;
63012;SDS011;62113;45.624;11.700;2024-02-23T11:12:36;5.72;;;3.80;;
63012;SDS011;62113;45.624;11.700;2024-02-23T11:15:02;5.43;;;3.90;;
63012;SDS011;62113;45.624;11.700;2024-02-23T11:17:31;4.22;;;3.72;;
63012;SDS011;62113;45.624;11.700;2024-02-23T11:20:02;5.47;;;3.53;;
63012;SDS011;62113;45.624;11.700;2024-02-23T11:22:32;9.13;;;3.83;;
63012;SDS011;62113;45.624;11.700;2024-02-23T11:25:02;5.18;;;3.13;;
63012;SDS011;62113;45.624;11.700;2024-02-23T11:27:33;6.15;;;3.40;;
63012;SDS011;62113;45.624;11.700;2024-02-23T11:32:45;5.43;;;3.40;;
63012;SDS011;62113;45.624;11.700;2024-02-23T11:35:13;12.40;;;3.80;;
63012;SDS011;62113;45.624;11.700;2024-02-23T11:37:59;7.68;;;4.00;;
63012;SDS011;62113;45.624;11.700;2024-02-23T11:40:30;7.85;;;4.43;;
63012;SDS011;62113;45.624;11.700;2024-02-23T11:42:57;7.82;;;4.10;;
63012;SDS011;62113;45.624;11.700;2024-02-23T11:45:29;7.80;;;4.10;;
63012;SDS011;62113;45.624;11.700;2024-02-23T11:47:55;6.90;;;3.83;;
63012;SDS011;62113;45.624;11.700;2024-02-23T11:50:21;6.05;;;3.90;;
63012;SDS011;62113;45.624;11.700;2024-02-23T11:52:47;5.90;;;3.42;;
63012;SDS011;62113;45.624;11.700;2024-02-23T11:55:13;6.57;;;3.73;;
63012;SDS011;62113;45.624;11.700;2024-02-23T11:57:46;4.43;;;3.35;;
63012;SDS011;62113;45.624;11.700;2024-02-23T12:00:12;5.05;;;3.40;;
63012;SDS011;62113;45.624;11.700;2024-02-23T12:02:38;8.67;;;4.40;;
63012;SDS011;62113;45.624;11.700;2024-02-23T12:05:03;5.78;;;3.60;;
63012;SDS011;62113;45.624;11.700;2024-02-23T12:07:29;13.97;;;3.83;;
63012;SDS011;62113;45.624;11.700;2024-02-23T12:09:56;6.68;;;3.35;;
63012;SDS011;62113;45.624;11.700;2024-02-23T12:12:22;5.33;;;3.93;;
63012;SDS011;62113;45.624;11.700;2024-02-23T12:14:50;5.95;;;4.50;;
63012;SDS011;62113;45.624;11.700;2024-02-23T12:17:16;9.02;;;4.18;;
63012;SDS011;62113;45.624;11.700;2024-02-23T12:19:41;11.93;;;6.90;;
63012;SDS011;62113;45.624;11.700;2024-02-23T12:22:07;6.63;;;4.22;;
63012;SDS011;62113;45.624;11.700;2024-02-23T12:24:34;6.55;;;4.30;;
63012;SDS011;62113;45.624;11.700;2024-02-23T12:27:00;5.30;;;3.50;;
63012;SDS011;62113;45.624;11.700;2024-02-23T12:29:26;5.77;;;3.17;;
63012;SDS011;62113;45.624;11.700;2024-02-23T12:32:01;6.70;;;3.40;;
63012;SDS011;62113;45.624;11.700;2024-02-23T12:34:28;7.68;;;3.60;;
63012;SDS011;62113;45.624;11.700;2024-02-23T12:36:54;6.87;;;4.23;;
63012;SDS011;62113;45.624;11.700;2024-02-23T12:39:20;9.18;;;4.53;;
63012;SDS011;62113;45.624;11.700;2024-02-23T12:41:46;6.77;;;4.03;;
63012;SDS011;62113;45.624;11.700;2024-02-23T12:44:12;5.65;;;4.22;;
63012;SDS011;62113;45.624;11.700;2024-02-23T12:46:37;7.20;;;4.23;;
63012;SDS011;62113;45.624;11.700;2024-02-23T12:49:03;8.93;;;4.28;;
63012;SDS011;62113;45.624;11.700;2024-02-23T12:51:28;4.55;;;3.50;;
63012;SDS011;62113;45.624;11.700;2024-02-23T12:53:54;8.18;;;4.97;;
63012;SDS011;62113;45.624;11.700;2024-02-23T12:56:19;6.70;;;4.28;;
63012;SDS011;62113;45.624;11.700;2024-02-23T12:58:45;7.90;;;4.20;;
63012;SDS011;62113;45.624;11.700;2024-02-23T13:01:11;11.05;;;4.90;;
63012;SDS011;62113;45.624;11.700;2024-02-23T13:03:37;7.93;;;4.15;;
63012;SDS011;62113;45.624;11.700;2024-02-23T13:06:06;7.78;;;5.10;;
63012;SDS011;62113;45.624;11.700;2024-02-23T13:08:32;6.13;;;4.38;;
63012;SDS011;62113;45.624;11.700;2024-02-23T13:10:58;5.85;;;4.72;;
63012;SDS011;62113;45.624;11.700;2024-02-23T13:13:23;6.67;;;4.27;;
63012;SDS011;62113;45.624;11.700;2024-02-23T13:15:50;4.85;;;4.05;;
63012;SDS011;62113;45.624;11.700;2024-02-23T13:18:17;7.80;;;4.43;;
63012;SDS011;62113;45.624;11.700;2024-02-23T13:20:44;4.78;;;3.78;;
63012;SDS011;62113;45.624;11.700;2024-02-23T13:23:10;5.23;;;3.77;;
63012;SDS011;62113;45.624;11.700;2024-02-23T13:25:37;5.07;;;3.95;;
63012;SDS011;62113;45.624;11.700;2024-02-23T13:28:03;5.85;;;4.38;;
63012;SDS011;62113;45.624;11.700;2024-02-23T13:30:29;4.40;;;4.00;;
63012;SDS011;62113;45.624;11.700;2024-02-23T13:32:55;8.23;;;4.93;;
63012;SDS011;62113;45.624;11.700;2024-02-23T13:35:21;6.57;;;3.75;;
63012;SDS011;62113;45.624;11.700;2024-02-23T13:37:47;6.43;;;5.00;;
63012;SDS011;62113;45.624;11.700;2024-02-23T13:40:13;7.47;;;5.13;;
63012;SDS011;62113;45.624;11.700;2024-02-23T13:42:39;6.50;;;4.30;;
63012;SDS011;62113;45.624;11.700;2024-02-23T13:45:08;6.77;;;4.30;;
63012;SDS011;62113;45.624;11.700;2024-02-23T13:47:34;8.32;;;5.28;;
63012;SDS011;62113;45.624;11.700;2024-02-23T13:50:00;4.05;;;3.50;;
63012;SDS011;62113;45.624;11.700;2024-02-23T13:52:26;2.47;;;2.28;;
63012;SDS011;62113;45.624;11.700;2024-02-23T13:54:52;2.88;;;2.63;;
63012;SDS011;62113;45.624;11.700;2024-02-23T13:57:18;2.90;;;2.60;;
63012;SDS011;62113;45.624;11.700;2024-02-23T13:59:44;4.07;;;2.30;;
63012;SDS011;62113;45.624;11.700;2024-02-23T14:02:09;3.15;;;2.85;;
63012;SDS011;62113;45.624;11.700;2024-02-23T14:04:35;2.58;;;2.33;;
63012;SDS011;62113;45.624;11.700;2024-02-23T14:07:01;8.88;;;2.90;;
63012;SDS011;62113;45.624;11.700;2024-02-23T14:09:26;2.50;;;2.30;;
63012;SDS011;62113;45.624;11.700;2024-02-23T14:11:52;4.18;;;2.75;;
63012;SDS011;62113;45.624;11.700;2024-02-23T14:14:18;2.78;;;2.58;;
63012;SDS011;62113;45.624;11.700;2024-02-23T14:16:45;4.45;;;2.58;;
63012;SDS011;62113;45.624;11.700;2024-02-23T14:19:10;5.80;;;2.90;;
63012;SDS011;62113;45.624;11.700;2024-02-23T14:21:36;4.78;;;3.70;;
63012;SDS011;62113;45.624;11.700;2024-02-23T14:24:02;4.72;;;3.90;;
63012;SDS011;62113;45.624;11.700;2024-02-23T14:26:29;3.72;;;3.40;;
63012;SDS011;62113;45.624;11.700;2024-02-23T14:28:54;3.60;;;3.20;;
63012;SDS011;62113;45.624;11.700;2024-02-23T14:31:20;3.87;;;3.40;;
63012;SDS011;62113;45.624;11.700;2024-02-23T14:33:46;3.90;;;3.13;;
63012;SDS011;62113;45.624;11.700;2024-02-23T14:36:15;4.93;;;3.20;;
63012;SDS011;62113;45.624;11.700;2024-02-23T14:38:41;4.43;;;3.25;;
63012;SDS011;62113;45.624;11.700;2024-02-23T14:41:07;3.77;;;3.43;;
63012;SDS011;62113;45.624;11.700;2024-02-23T14:43:34;4.38;;;2.67;;
63012;SDS011;62113;45.624;11.700;2024-02-23T14:45:59;5.37;;;3.37;;
63012;SDS011;62113;45.624;11.700;2024-02-23T14:48:25;3.90;;;3.33;;